KJVL

Southern Wisconsin Regional Airport

Janesville, Wisconsin, USA
METAR KJVL 151345Z 29011G16KT 10SM BKN036 OVC041 M03/M10 A2990
Observed Flight Rules
Dec-15 @ 13:45 UTC (25 minutes ago) Visual Flight Rules
Wind Visibility Clouds
290° at 11 knots
 Gusting to 16 knots
10 miles
  • Broken at 3,600' AGL
  • Overcast at 4,100' AGL
Temperatures Readings
Current -3°C / 27°F
Dewpoint -10°C / 14°F
Humidity 59%
Altimeter 29.9" Hg
Pressure 1013 hPa
Elevation 246
METAR KJVL 151345Z 29011G16KT 10SM BKN036 OVC041 M03/M10 A2990
Observed Flight Rules
Dec-15 @ 13:45 UTC
(25 minutes ago)
VFR
Wind Visibility
290° at 11 knots
 Gusting to 16 knots
10 miles
Clouds
  • Broken at 3,600' AGL
  • Overcast at 4,100' AGL
Temperature Dewpoint
-3°C / 27°F -10°C / 14°F
Humidity Altimeter Pressure
59% 29.9" Hg 1013 hPa